Island Home — WDD3413 — position and weather

sailwx.info

Track history (hours):
 
Tides and Currents Weather Stations Pressure Air Temp Water Temp Dewpoint Dewpoint Depression Visibility Wind Speed Wind Dir Waves Ship Positions

Island Home

Owner: WOODS HOLE, MARTHA'S VINEYARD AND NANTUCKET STEAMSHIP AUTHORITY, Woods Hole, MA. More information available from US FCC via Universal Licensing System and Coast Guard Vessel Documentation Center.

Last reported at 2017-Oct-15 22:50 UTC. Time now 2017-Oct-18 07:57 UTC.
Position N 41°28' W 070°36'.

Length 72 m; draft 4 m.

Type: Passenger vessel. MMSI: 367130910.

Date/timePositionNaut miles runAvg speedWind from/ knotsBaromVisibWave heightAir tempDewpointWater temp
2017-Oct-15 22:50N 41°28' W 070°36'410.0
2017-Oct-15 22:25N 41°30' W 070°40'4 3.0
2017-Oct-15 21:14N 41°29' W 070°35'  
2017-Oct-12 02:00N 41°31' W 070°40'2 1.0
2017-Oct-11 23:45N 41°30' W 070°37'311.1
2017-Oct-11 23:30N 41°28' W 070°36'5 1.3
2017-Oct-11 19:52N 41°31' W 070°40'0 0.0
2017-Oct-10 14:52N 41°31' W 070°40'0 0.1
2017-Oct-10 12:20N 41°31' W 070°40'0 0.0
2017-Oct-08 11:34N 41°31' W 070°40'5 5.1
2017-Oct-08 10:38N 41°28' W 070°35'5 0.5
2017-Oct-08 02:06N 41°31' W 070°40'110.3
2017-Oct-08 01:59N 41°30' W 070°39'4 4.0
2017-Oct-08 01:05N 41°27' W 070°36'1 9.4
2017-Oct-08 00:56N 41°29' W 070°35'5 4.3
2017-Oct-07 23:52N 41°31' W 070°40'5 4.9
2017-Oct-07 22:49N 41°28' W 070°35'5 9.9
2017-Oct-07 22:21N 41°31' W 070°40'5 0.5
2017-Oct-07 12:53N 41°28' W 070°36'511.5
2017-Oct-07 12:28N 41°31' W 070°40'0 0.7
2017-Oct-07 11:48N 41°31' W 070°40'2 7.4
2017-Oct-07 11:29N 41°30' W 070°38'3 4.1
2017-Oct-07 10:43N 41°27' W 070°36'2 8.5
2017-Oct-07 10:30N 41°29' W 070°35'4 0.2
2017-Oct-06 12:25N 41°31' W 070°40'5 2.6
2017-Oct-06 10:35N 41°27' W 070°36'  
Track history (hours):
 
Tides and Currents Weather Stations Pressure Air Temp Water Temp Dewpoint Dewpoint Depression Visibility Wind Speed Wind Dir Waves Ship Positions

Island Home

Owner: WOODS HOLE, MARTHA'S VINEYARD AND NANTUCKET STEAMSHIP AUTHORITY, Woods Hole, MA. More information available from US FCC via Universal Licensing System and Coast Guard Vessel Documentation Center.

Last reported at 2017-Oct-15 22:50 UTC. Time now 2017-Oct-18 07:57 UTC.
Position N 41°28' W 070°36'.

Length 72 m; draft 4 m.

Type: Passenger vessel. MMSI: 367130910.

Date/timePositionNaut miles runAvg speedWind from/ knotsBaromVisibWave heightAir tempDewpointWater temp
2017-Oct-15 22:50N 41°28' W 070°36'410.0
2017-Oct-15 22:25N 41°30' W 070°40'4 3.0
2017-Oct-15 21:14N 41°29' W 070°35'  
2017-Oct-12 02:00N 41°31' W 070°40'2 1.0
2017-Oct-11 23:45N 41°30' W 070°37'311.1
2017-Oct-11 23:30N 41°28' W 070°36'5 1.3
2017-Oct-11 19:52N 41°31' W 070°40'0 0.0
2017-Oct-10 14:52N 41°31' W 070°40'0 0.1
2017-Oct-10 12:20N 41°31' W 070°40'0 0.0
2017-Oct-08 11:34N 41°31' W 070°40'5 5.1
2017-Oct-08 10:38N 41°28' W 070°35'5 0.5
2017-Oct-08 02:06N 41°31' W 070°40'110.3
2017-Oct-08 01:59N 41°30' W 070°39'4 4.0
2017-Oct-08 01:05N 41°27' W 070°36'1 9.4
2017-Oct-08 00:56N 41°29' W 070°35'5 4.3
2017-Oct-07 23:52N 41°31' W 070°40'5 4.9
2017-Oct-07 22:49N 41°28' W 070°35'5 9.9
2017-Oct-07 22:21N 41°31' W 070°40'5 0.5
2017-Oct-07 12:53N 41°28' W 070°36'511.5
2017-Oct-07 12:28N 41°31' W 070°40'0 0.7
2017-Oct-07 11:48N 41°31' W 070°40'2 7.4
2017-Oct-07 11:29N 41°30' W 070°38'3 4.1
2017-Oct-07 10:43N 41°27' W 070°36'2 8.5
2017-Oct-07 10:30N 41°29' W 070°35'4 0.2
2017-Oct-06 12:25N 41°31' W 070°40'5 2.6
2017-Oct-06 10:35N 41°27' W 070°36'  

Dump ship's entire track history